Time;durP1;ratioP1;P1;durP2;ratioP2;P2;SDS_P1;SDS_P2;PMS_P1;PMS_P2;Temp;Humidity;BMP_temperature;BMP_pressure;BME280_temperature;BME280_humidity;BME280_pressure;Samples;Min_cycle;Max_cycle;Signal;HPM_P1;HPM_P2
2022/09/05 00:01:07;;;;;;;1.08;0.82;;;;;;;;;;7416051;19;20035;-78
2022/09/05 00:03:55;;;;;;;0.85;0.70;;;;;;;;;;7399863;19;20022;-78
2022/09/05 00:06:24;;;;;;;1.77;0.80;;;;;;;;;;7397669;19;20010;-77
2022/09/05 00:08:54;;;;;;;0.50;0.50;;;;;;;;;;7396795;19;20006;-78
2022/09/05 00:11:34;;;;;;;0.77;0.68;;;;;;;;;;7397395;19;20038;-78
2022/09/05 00:14:17;;;;;;;3.88;0.70;;;;;;;;;;7396951;19;20081;-77
2022/09/05 00:16:54;;;;;;;0.70;0.70;;;;;;;;;;7392920;19;20014;-78
2022/09/05 00:19:50;;;;;;;0.65;0.57;;;;;;;;;;7393283;19;20017;-78
2022/09/05 00:22:25;;;;;;;;;;;;;;;;;;7395262;19;20014;-78
2022/09/05 00:25:20;;;;;;;0.80;0.80;;;;;;;;;;7392624;19;19922;-77
2022/09/05 00:28:00;;;;;;;0.95;0.80;;;;;;;;;;7392943;19;20907;-77
2022/09/05 00:30:39;;;;;;;2.90;0.80;;;;;;;;;;7389004;19;20015;-78
2022/09/05 00:33:25;;;;;;;1.05;0.75;;;;;;;;;;7392167;19;20019;-78
2022/09/05 00:36:06;;;;;;;0.80;0.50;;;;;;;;;;7390649;19;20007;-77
2022/09/05 00:38:32;;;;;;;1.83;0.63;;;;;;;;;;7389557;19;20498;-77
2022/09/05 00:41:03;;;;;;;0.60;0.60;;;;;;;;;;7393970;19;20079;-77
2022/09/05 00:43:33;;;;;;;0.57;0.57;;;;;;;;;;7395216;19;20010;-77
2022/09/05 00:46:06;;;;;;;1.02;0.65;;;;;;;;;;7391524;19;20047;-77
2022/09/05 00:48:52;;;;;;;1.75;1.08;;;;;;;;;;7391250;19;20007;-77
2022/09/05 00:51:26;;;;;;;0.75;0.50;;;;;;;;;;7393949;19;20010;-77
2022/09/05 00:54:07;;;;;;;1.00;0.80;;;;;;;;;;7391430;19;20037;-76
2022/09/05 00:56:57;;;;;;;1.95;0.57;;;;;;;;;;7393183;19;20013;-77
2022/09/05 00:59:31;;;;;;;0.57;0.57;;;;;;;;;;7391386;19;20018;-78
2022/09/05 01:02:27;;;;;;;0.70;0.70;;;;;;;;;;7388727;19;20070;-78
2022/09/05 01:04:58;;;;;;;;;;;;;;;;;;7392151;19;20006;-77
2022/09/05 01:08:00;;;;;;;0.95;0.85;;;;;;;;;;7384641;19;19910;-77
2022/09/05 01:10:57;;;;;;;0.80;0.80;;;;;;;;;;7391568;19;20018;-75
2022/09/05 01:13:43;;;;;;;0.65;0.65;;;;;;;;;;7393464;19;20013;-77
2022/09/05 01:16:27;;;;;;;2.92;0.70;;;;;;;;;;7392651;19;20030;-78
2022/09/05 01:19:19;;;;;;;0.57;0.57;;;;;;;;;;7392550;19;20582;-76
2022/09/05 01:22:03;;;;;;;1.02;0.80;;;;;;;;;;7406830;19;20003;-76
2022/09/05 01:24:50;;;;;;;0.95;0.60;;;;;;;;;;7408494;19;20012;-77
2022/09/05 01:27:46;;;;;;;0.65;0.65;;;;;;;;;;7408026;19;20018;-78
2022/09/05 01:30:24;;;;;;;1.42;0.90;;;;;;;;;;7406668;19;20007;-78
2022/09/05 01:32:52;;;;;;;1.00;0.70;;;;;;;;;;7406148;19;20033;-76
2022/09/05 01:35:26;;;;;;;2.05;0.60;;;;;;;;;;7405525;19;20029;-77
2022/09/05 01:38:04;;;;;;;2.10;0.70;;;;;;;;;;7399313;19;20011;-78
2022/09/05 01:40:40;;;;;;;1.23;0.73;;;;;;;;;;7398497;19;20483;-76
2022/09/05 01:43:24;;;;;;;0.85;0.60;;;;;;;;;;7393799;19;20014;-78
2022/09/05 01:46:40;;;;;;;2.13;0.65;;;;;;;;;;7396433;19;20471;-77
2022/09/05 01:49:23;;;;;;;0.75;0.70;;;;;;;;;;7392988;19;20017;-77
2022/09/05 01:52:21;;;;;;;9.68;1.00;;;;;;;;;;7399233;19;20113;-77
2022/09/05 01:55:11;;;;;;;0.85;0.80;;;;;;;;;;7394219;19;20021;-78
2022/09/05 01:57:42;;;;;;;0.82;0.65;;;;;;;;;;7392450;19;20618;-78
2022/09/05 02:00:08;;;;;;;4.35;0.90;;;;;;;;;;7392069;19;20074;-77
2022/09/05 02:02:52;;;;;;;1.10;0.95;;;;;;;;;;7390633;19;20030;-77
2022/09/05 02:05:55;;;;;;;1.67;0.98;;;;;;;;;;7391906;19;20104;-78
2022/09/05 02:08:38;;;;;;;2.75;0.90;;;;;;;;;;7388132;19;20039;-76
2022/09/05 02:11:09;;;;;;;1.48;0.90;;;;;;;;;;7393198;19;20014;-77
2022/09/05 02:13:34;;;;;;;1.65;0.90;;;;;;;;;;7391632;19;20086;-78
2022/09/05 02:16:14;;;;;;;0.70;0.70;;;;;;;;;;7391456;19;20507;-78
2022/09/05 02:18:51;;;;;;;1.52;0.90;;;;;;;;;;7392154;19;20093;-76
2022/09/05 02:21:37;;;;;;;1.17;0.90;;;;;;;;;;7398695;19;20015;-77
2022/09/05 02:24:44;;;;;;;0.80;0.80;;;;;;;;;;7398976;19;20015;-78
2022/09/05 02:27:17;;;;;;;;;;;;;;;;;;7396089;19;20358;-77
2022/09/05 02:30:04;;;;;;;0.68;0.68;;;;;;;;;;7398845;19;20003;-78
2022/09/05 02:32:36;;;;;;;3.90;1.00;;;;;;;;;;7398350;19;20108;-77
2022/09/05 02:35:33;;;;;;;1.85;0.88;;;;;;;;;;7399667;19;20010;-77
2022/09/05 02:38:19;;;;;;;0.60;0.60;;;;;;;;;;7394779;19;20381;-77
2022/09/05 02:40:53;;;;;;;0.70;0.45;;;;;;;;;;7397702;19;20010;-76
2022/09/05 02:43:37;;;;;;;0.93;0.65;;;;;;;;;;7398272;19;20035;-78
2022/09/05 02:46:29;;;;;;;0.82;0.77;;;;;;;;;;7398937;19;20011;-78
2022/09/05 02:49:16;;;;;;;5.47;2.78;;;;;;;;;;7398290;19;20011;-77
2022/09/05 02:51:48;;;;;;;2.17;1.30;;;;;;;;;;7401371;19;20333;-77
2022/09/05 02:54:16;;;;;;;1.35;1.20;;;;;;;;;;7400155;19;20074;-77
2022/09/05 02:57:00;;;;;;;1.40;0.80;;;;;;;;;;7397615;19;20380;-77
2022/09/05 02:59:46;;;;;;;1.50;0.70;;;;;;;;;;7398752;19;20050;-76
2022/09/05 03:02:20;;;;;;;1.10;1.00;;;;;;;;;;7399583;19;20114;-77
2022/09/05 03:04:55;;;;;;;2.90;1.00;;;;;;;;;;7417011;19;20006;-76
2022/09/05 03:07:26;;;;;;;1.35;1.10;;;;;;;;;;7398746;19;20018;-78
2022/09/05 03:09:58;;;;;;;2.33;0.80;;;;;;;;;;7397129;19;20002;-78
2022/09/05 03:13:15;;;;;;;1.02;0.93;;;;;;;;;;7397138;19;20010;-77
2022/09/05 03:16:05;;;;;;;1.77;0.90;;;;;;;;;;7393827;19;20011;-77
2022/09/05 03:19:03;;;;;;;0.88;0.70;;;;;;;;;;7393190;19;20078;-77
2022/09/05 03:21:47;;;;;;;0.60;0.60;;;;;;;;;;7395249;19;20009;-77
2022/09/05 03:24:51;;;;;;;1.10;0.80;;;;;;;;;;7399094;19;19998;-76
2022/09/05 03:27:34;;;;;;;5.55;0.90;;;;;;;;;;7396946;19;20482;-77
2022/09/05 03:30:18;;;;;;;0.75;0.68;;;;;;;;;;7398428;19;20073;-76
2022/09/05 03:32:54;;;;;;;1.33;0.80;;;;;;;;;;7394415;19;20010;-77
2022/09/05 03:36:12;;;;;;;1.20;1.05;;;;;;;;;;7397884;19;20011;-77
2022/09/05 03:38:49;;;;;;;2.10;0.98;;;;;;;;;;7396441;19;20030;-78
2022/09/05 03:41:39;;;;;;;0.80;0.80;;;;;;;;;;7397525;19;20032;-77
2022/09/05 03:44:27;;;;;;;1.02;0.80;;;;;;;;;;7399551;19;20070;-77
2022/09/05 03:47:13;;;;;;;2.88;1.00;;;;;;;;;;7398105;19;20011;-76
2022/09/05 03:49:50;;;;;;;1.70;1.23;;;;;;;;;;7399056;19;20010;-77
2022/09/05 03:52:37;;;;;;;2.47;1.15;;;;;;;;;;7400478;19;20002;-78
2022/09/05 03:55:20;;;;;;;2.72;1.50;;;;;;;;;;7398978;19;20014;-77
2022/09/05 03:58:04;;;;;;;0.98;0.93;;;;;;;;;;7394758;19;20017;-77
2022/09/05 04:00:35;;;;;;;5.05;1.20;;;;;;;;;;7398631;19;20014;-78
2022/09/05 04:03:04;;;;;;;1.95;0.82;;;;;;;;;;7398903;19;20011;-76
2022/09/05 04:05:38;;;;;;;1.52;1.27;;;;;;;;;;7394666;19;20013;-78
2022/09/05 04:08:12;;;;;;;2.47;0.85;;;;;;;;;;7394932;19;20022;-77
2022/09/05 04:10:51;;;;;;;1.13;0.90;;;;;;;;;;7394534;19;20010;-77
2022/09/05 04:13:24;;;;;;;2.65;1.20;;;;;;;;;;7393323;19;20142;-77
2022/09/05 04:16:04;;;;;;;1.13;1.02;;;;;;;;;;7394934;19;20006;-77
2022/09/05 04:18:55;;;;;;;1.13;1.00;;;;;;;;;;7393922;19;20051;-78
2022/09/05 04:21:23;;;;;;;1.13;1.00;;;;;;;;;;7396499;19;20003;-76
2022/09/05 04:24:10;;;;;;;1.02;0.90;;;;;;;;;;7393398;19;20507;-77
2022/09/05 04:27:03;;;;;;;2.95;1.10;;;;;;;;;;7395314;19;20491;-77
2022/09/05 04:29:56;;;;;;;1.63;1.00;;;;;;;;;;7394269;19;20011;-77
2022/09/05 04:32:45;;;;;;;2.63;0.90;;;;;;;;;;7396261;19;20074;-77
2022/09/05 04:35:20;;;;;;;2.20;0.90;;;;;;;;;;7393878;19;20039;-77
2022/09/05 04:37:45;;;;;;;1.03;0.90;;;;;;;;;;7394233;19;20007;-77
2022/09/05 04:40:30;;;;;;;2.03;1.00;;;;;;;;;;7394615;19;20013;-76
2022/09/05 04:43:04;;;;;;;1.05;0.95;;;;;;;;;;7392418;19;20015;-77
2022/09/05 04:45:35;;;;;;;2.22;1.13;;;;;;;;;;7396274;19;20015;-78
2022/09/05 04:48:04;;;;;;;1.77;1.20;;;;;;;;;;7395457;19;20011;-77
2022/09/05 04:50:32;;;;;;;1.10;0.90;;;;;;;;;;7397153;19;20128;-77
2022/09/05 04:53:22;;;;;;;1.13;0.80;;;;;;;;;;7395069;19;20035;-78
2022/09/05 04:55:54;;;;;;;1.48;0.80;;;;;;;;;;7395103;19;20050;-77
2022/09/05 04:58:40;;;;;;;1.67;1.05;;;;;;;;;;7392252;19;20010;-77
2022/09/05 05:01:05;;;;;;;0.65;0.60;;;;;;;;;;7395174;19;20037;-78
2022/09/05 05:03:33;;;;;;;3.42;0.80;;;;;;;;;;7387720;19;20040;-77
2022/09/05 05:06:04;;;;;;;2.92;1.10;;;;;;;;;;7394178;19;20006;-78
2022/09/05 05:08:32;;;;;;;3.30;1.02;;;;;;;;;;7391819;19;20023;-77
2022/09/05 05:11:12;;;;;;;1.55;1.10;;;;;;;;;;7390018;19;20110;-78
2022/09/05 05:13:42;;;;;;;2.38;1.23;;;;;;;;;;7392020;19;20034;-79
2022/09/05 05:16:20;;;;;;;3.08;1.00;;;;;;;;;;7393002;19;20006;-79
2022/09/05 05:18:51;;;;;;;0.80;0.80;;;;;;;;;;7391472;19;20037;-80
2022/09/05 05:21:23;;;;;;;0.60;0.52;;;;;;;;;;7392413;19;20011;-78
2022/09/05 05:23:48;;;;;;;1.92;0.95;;;;;;;;;;7396419;19;20040;-79
2022/09/05 05:26:45;;;;;;;3.15;1.42;;;;;;;;;;7396579;19;20010;-77
2022/09/05 05:29:20;;;;;;;1.65;1.02;;;;;;;;;;7394958;19;20120;-79
2022/09/05 05:31:53;;;;;;;3.13;1.10;;;;;;;;;;7396621;19;20373;-78
2022/09/05 05:34:35;;;;;;;2.67;0.93;;;;;;;;;;7389821;19;20444;-78
2022/09/05 05:37:15;;;;;;;4.78;1.20;;;;;;;;;;7390985;19;20019;-77
2022/09/05 05:39:49;;;;;;;1.42;1.10;;;;;;;;;;7397083;19;20019;-78
2022/09/05 05:42:19;;;;;;;4.00;1.03;;;;;;;;;;7394694;19;20031;-80
2022/09/05 05:45:03;;;;;;;2.85;1.20;;;;;;;;;;7393169;19;20302;-79
2022/09/05 05:47:36;;;;;;;2.15;1.38;;;;;;;;;;7393733;19;20021;-79
2022/09/05 05:50:33;;;;;;;3.13;1.17;;;;;;;;;;7392640;19;20023;-78
2022/09/05 05:53:21;;;;;;;1.65;1.45;;;;;;;;;;7387335;19;20066;-77
2022/09/05 05:56:21;;;;;;;1.77;1.38;;;;;;;;;;7389168;19;20436;-77
2022/09/05 05:59:24;;;;;;;2.22;0.98;;;;;;;;;;7392256;19;20013;-79
2022/09/05 06:02:04;;;;;;;2.20;1.60;;;;;;;;;;7394203;19;20077;-77
2022/09/05 06:05:21;;;;;;;2.78;1.50;;;;;;;;;;7392905;19;20014;-78
2022/09/05 06:08:16;;;;;;;2.55;1.30;;;;;;;;;;7412239;19;20006;-77
2022/09/05 06:11:17;;;;;;;3.83;1.40;;;;;;;;;;7397051;19;20031;-78
2022/09/05 06:14:01;;;;;;;2.88;1.80;;;;;;;;;;7396373;19;20339;-80
2022/09/05 06:16:32;;;;;;;4.07;1.83;;;;;;;;;;7395281;19;20027;-79
2022/09/05 06:19:24;;;;;;;2.00;1.63;;;;;;;;;;7392501;19;20066;-79
2022/09/05 06:21:53;;;;;;;3.30;1.88;;;;;;;;;;7394447;19;20010;-79
2022/09/05 06:25:20;;;;;;;4.40;2.40;;;;;;;;;;7395446;19;19998;-79
2022/09/05 06:27:58;;;;;;;4.03;2.50;;;;;;;;;;7386790;19;20792;-79
2022/09/05 06:30:24;;;;;;;3.15;2.22;;;;;;;;;;7391885;19;20337;-79
2022/09/05 06:33:08;;;;;;;2.28;1.90;;;;;;;;;;7391789;19;20014;-78
2022/09/05 06:35:53;;;;;;;3.97;1.75;;;;;;;;;;7391121;19;20019;-78
2022/09/05 06:38:44;;;;;;;5.47;2.38;;;;;;;;;;7389707;19;20363;-78
2022/09/05 06:41:46;;;;;;;2.88;1.80;;;;;;;;;;7394575;19;20371;-79
2022/09/05 06:44:30;;;;;;;2.83;1.90;;;;;;;;;;7390334;19;20130;-79
2022/09/05 06:47:03;;;;;;;4.10;2.50;;;;;;;;;;7381882;19;20464;-79
2022/09/05 06:49:40;;;;;;;4.13;2.47;;;;;;;;;;7380691;19;20013;-79
2022/09/05 06:52:44;;;;;;;3.45;1.98;;;;;;;;;;7386697;19;20010;-79
2022/09/05 06:55:28;;;;;;;2.92;1.90;;;;;;;;;;7387814;19;20015;-79
2022/09/05 06:58:03;;;;;;;3.58;2.22;;;;;;;;;;7387828;19;20023;-79
2022/09/05 07:00:32;;;;;;;;;;;;;;;;;;7391425;19;20006;-79
2022/09/05 07:03:18;;;;;;;5.47;2.55;;;;;;;;;;7392988;19;20311;-79
2022/09/05 07:05:56;;;;;;;3.75;2.90;;;;;;;;;;7391311;19;20010;-78
2022/09/05 07:08:52;;;;;;;3.63;2.53;;;;;;;;;;7392477;19;20018;-79
2022/09/05 07:11:22;;;;;;;5.07;2.50;;;;;;;;;;7395623;19;20003;-79
2022/09/05 07:14:08;;;;;;;4.10;2.40;;;;;;;;;;7399353;19;20014;-79
2022/09/05 07:16:46;;;;;;;5.63;2.20;;;;;;;;;;7392838;19;20034;-79
2022/09/05 07:19:31;;;;;;;2.60;1.85;;;;;;;;;;7395435;19;20022;-80
2022/09/05 07:22:03;;;;;;;3.63;2.15;;;;;;;;;;7397244;19;20030;-79
2022/09/05 07:24:31;;;;;;;5.60;2.22;;;;;;;;;;7398866;19;20508;-80
2022/09/05 07:26:58;;;;;;;2.35;1.98;;;;;;;;;;7398682;19;20003;-79
2022/09/05 07:29:38;;;;;;;2.30;2.10;;;;;;;;;;7394343;19;20057;-80
2022/09/05 07:32:07;;;;;;;2.83;1.88;;;;;;;;;;7394866;19;20433;-80
2022/09/05 07:34:34;;;;;;;2.55;1.70;;;;;;;;;;7395715;19;20385;-79
2022/09/05 07:37:06;;;;;;;3.08;1.90;;;;;;;;;;7394241;19;20019;-79
2022/09/05 07:39:40;;;;;;;1.52;1.42;;;;;;;;;;7399023;19;20324;-78
2022/09/05 07:42:13;;;;;;;3.83;1.90;;;;;;;;;;7397939;19;20034;-80
2022/09/05 07:44:47;;;;;;;4.93;1.90;;;;;;;;;;7395127;19;20006;-77
2022/09/05 07:47:21;;;;;;;3.28;1.70;;;;;;;;;;7394518;19;20010;-80
2022/09/05 07:49:48;;;;;;;1.60;1.30;;;;;;;;;;7394525;19;20078;-78
2022/09/05 07:52:13;;;;;;;2.67;1.60;;;;;;;;;;7395075;19;20017;-77
2022/09/05 07:54:40;;;;;;;2.17;1.40;;;;;;;;;;7394652;19;20014;-77
2022/09/05 07:57:08;;;;;;;3.35;1.67;;;;;;;;;;7396036;19;20413;-77
2022/09/05 07:59:37;;;;;;;2.33;1.60;;;;;;;;;;7394535;19;20006;-77
2022/09/05 08:02:06;;;;;;;2.13;1.60;;;;;;;;;;7392485;19;20010;-77
2022/09/05 08:04:34;;;;;;;2.05;1.50;;;;;;;;;;7396098;19;20432;-77
2022/09/05 08:07:29;;;;;;;2.15;1.20;;;;;;;;;;7396298;19;20424;-77
2022/09/05 08:09:59;;;;;;;2.00;1.17;;;;;;;;;;7394002;19;20003;-78
2022/09/05 08:12:47;;;;;;;1.20;1.10;;;;;;;;;;7396529;19;20126;-78
2022/09/05 08:15:17;;;;;;;2.63;1.63;;;;;;;;;;7394705;19;20053;-78
2022/09/05 08:18:04;;;;;;;2.20;1.48;;;;;;;;;;7392443;19;20025;-78
2022/09/05 08:20:50;;;;;;;1.83;1.30;;;;;;;;;;7396349;19;20017;-78
2022/09/05 08:23:36;;;;;;;0.95;0.93;;;;;;;;;;7394959;19;20014;-78
2022/09/05 08:26:14;;;;;;;1.42;1.27;;;;;;;;;;7396395;19;19994;-78
2022/09/05 08:29:03;;;;;;;3.35;1.40;;;;;;;;;;7394994;19;20007;-77
2022/09/05 08:31:36;;;;;;;2.58;1.17;;;;;;;;;;7397128;19;20014;-78
2022/09/05 08:34:08;;;;;;;1.73;1.20;;;;;;;;;;7393627;19;20119;-78
2022/09/05 08:36:45;;;;;;;1.52;1.20;;;;;;;;;;7391739;19;20095;-79
2022/09/05 08:39:12;;;;;;;1.30;1.20;;;;;;;;;;7392079;19;20006;-77
2022/09/05 08:42:12;;;;;;;1.75;1.10;;;;;;;;;;7390995;19;20018;-77
2022/09/05 08:44:51;;;;;;;1.63;0.93;;;;;;;;;;7390536;19;20014;-77
2022/09/05 08:47:37;;;;;;;2.20;0.98;;;;;;;;;;7396836;19;19994;-77
2022/09/05 08:50:11;;;;;;;;;;;;;;;;;;7391110;19;20007;-78
2022/09/05 08:52:50;;;;;;;0.98;0.90;;;;;;;;;;7390138;19;19995;-77
2022/09/05 08:55:45;;;;;;;2.03;1.00;;;;;;;;;;7395076;19;20007;-78
2022/09/05 08:58:51;;;;;;;1.00;0.90;;;;;;;;;;7391032;19;20014;-77
2022/09/05 09:02:02;;;;;;;0.70;0.70;;;;;;;;;;7394038;19;20006;-78
2022/09/05 09:04:41;;;;;;;1.38;0.90;;;;;;;;;;7394187;19;20014;-77
2022/09/05 09:07:23;;;;;;;0.60;0.60;;;;;;;;;;7392582;19;20015;-78
2022/09/05 09:09:59;;;;;;;1.52;0.80;;;;;;;;;;7393820;19;20018;-77
2022/09/05 09:12:54;;;;;;;0.88;0.88;;;;;;;;;;7395390;19;20014;-78
2022/09/05 09:15:24;;;;;;;1.25;0.80;;;;;;;;;;7389133;19;20010;-78
2022/09/05 09:17:51;;;;;;;2.28;0.77;;;;;;;;;;7393288;19;20014;-78
2022/09/05 09:20:51;;;;;;;0.60;0.60;;;;;;;;;;7394084;19;20010;-78
2022/09/05 09:23:45;;;;;;;0.90;0.70;;;;;;;;;;7392699;19;20015;-78
2022/09/05 09:26:14;;;;;;;0.70;0.70;;;;;;;;;;7392847;19;20076;-77
2022/09/05 09:29:02;;;;;;;0.98;0.80;;;;;;;;;;7391387;19;20464;-77
2022/09/05 09:31:51;;;;;;;0.65;0.60;;;;;;;;;;7393539;19;20019;-80
2022/09/05 09:34:27;;;;;;;0.85;0.80;;;;;;;;;;7389832;19;20583;-79
2022/09/05 09:37:07;;;;;;;0.93;0.70;;;;;;;;;;7391834;19;20013;-79
2022/09/05 09:39:59;;;;;;;1.38;0.90;;;;;;;;;;7388178;19;20018;-79
2022/09/05 09:42:50;;;;;;;0.80;0.63;;;;;;;;;;7386670;19;20010;-78
2022/09/05 09:45:27;;;;;;;0.88;0.68;;;;;;;;;;7391579;19;20018;-77
2022/09/05 09:48:23;;;;;;;1.52;0.70;;;;;;;;;;7393422;19;20015;-78
2022/09/05 09:51:21;;;;;;;1.60;0.90;;;;;;;;;;7390611;19;20014;-78
2022/09/05 09:54:10;;;;;;;0.60;0.60;;;;;;;;;;7389949;19;20779;-78
2022/09/05 09:57:13;;;;;;;0.70;0.68;;;;;;;;;;7389051;19;20014;-78
2022/09/05 10:00:06;;;;;;;1.17;0.60;;;;;;;;;;7389474;19;19999;-78
2022/09/05 10:03:05;;;;;;;1.52;0.80;;;;;;;;;;7388821;19;20006;-78
2022/09/05 10:06:04;;;;;;;0.98;0.68;;;;;;;;;;7389527;19;20015;-78
2022/09/05 10:08:56;;;;;;;1.33;0.90;;;;;;;;;;7384768;19;20504;-78
2022/09/05 10:11:37;;;;;;;2.88;0.85;;;;;;;;;;7387464;19;20010;-78
2022/09/05 10:14:28;;;;;;;1.45;0.90;;;;;;;;;;7390029;19;20011;-78
2022/09/05 10:16:56;;;;;;;1.20;1.00;;;;;;;;;;7381276;19;20048;-79
2022/09/05 10:19:42;;;;;;;0.80;0.70;;;;;;;;;;7381957;19;20031;-78
2022/09/05 10:22:32;;;;;;;0.82;0.80;;;;;;;;;;7387802;19;20088;-78
2022/09/05 10:25:12;;;;;;;0.77;0.73;;;;;;;;;;7389304;19;20011;-78
2022/09/05 10:28:11;;;;;;;1.98;0.80;;;;;;;;;;7386449;19;20043;-77
2022/09/05 10:31:04;;;;;;;0.90;0.70;;;;;;;;;;7389747;19;20017;-78
2022/09/05 10:33:35;;;;;;;3.30;1.00;;;;;;;;;;7390761;19;20065;-79
2022/09/05 10:36:14;;;;;;;1.38;0.70;;;;;;;;;;7386166;19;20534;-80
2022/09/05 10:38:45;;;;;;;0.98;0.70;;;;;;;;;;7386141;19;20015;-78
2022/09/05 10:41:18;;;;;;;2.67;0.88;;;;;;;;;;7391665;19;20002;-78
2022/09/05 10:44:01;;;;;;;0.80;0.80;;;;;;;;;;7396264;19;20027;-78
2022/09/05 10:46:38;;;;;;;3.80;0.80;;;;;;;;;;7398188;19;20487;-77
2022/09/05 10:49:07;;;;;;;1.27;0.90;;;;;;;;;;7396647;19;20047;-79
2022/09/05 10:51:34;;;;;;;1.60;0.63;;;;;;;;;;7398082;19;20476;-80
2022/09/05 10:54:41;;;;;;;1.48;0.90;;;;;;;;;;7396465;19;20365;-79
2022/09/05 10:57:15;;;;;;;2.30;0.90;;;;;;;;;;7396609;19;20019;-79
2022/09/05 11:00:21;;;;;;;3.60;0.93;;;;;;;;;;7396607;19;20014;-80
2022/09/05 11:02:55;;;;;;;1.20;1.10;;;;;;;;;;7400914;19;20006;-80
2022/09/05 11:05:24;;;;;;;0.77;0.77;;;;;;;;;;7397032;19;20014;-78
2022/09/05 11:07:57;;;;;;;1.58;0.75;;;;;;;;;;7401606;19;20003;-80
2022/09/05 11:10:30;;;;;;;3.53;0.73;;;;;;;;;;7401485;19;20014;-78
2022/09/05 11:13:34;;;;;;;0.73;0.73;;;;;;;;;;7398560;19;20014;-80
2022/09/05 11:16:17;;;;;;;2.20;0.90;;;;;;;;;;7397985;19;20023;-79
2022/09/05 11:18:42;;;;;;;0.77;0.75;;;;;;;;;;7392651;19;20018;-79
2022/09/05 11:21:28;;;;;;;0.52;0.52;;;;;;;;;;7394490;19;20031;-79
2022/09/05 11:24:23;;;;;;;2.63;0.85;;;;;;;;;;7398123;19;20481;-80
2022/09/05 11:26:58;;;;;;;0.93;0.70;;;;;;;;;;7397252;19;20006;-79
2022/09/05 11:29:33;;;;;;;1.33;0.80;;;;;;;;;;7396940;19;20014;-78
2022/09/05 11:32:37;;;;;;;1.33;0.77;;;;;;;;;;7395320;19;20028;-78
2022/09/05 11:35:13;;;;;;;1.05;0.70;;;;;;;;;;7395641;19;20377;-78
2022/09/05 11:38:30;;;;;;;0.60;0.60;;;;;;;;;;7390973;19;20010;-78
2022/09/05 11:41:22;;;;;;;1.35;1.02;;;;;;;;;;7391020;19;20022;-76
2022/09/05 11:44:03;;;;;;;1.45;0.82;;;;;;;;;;7398159;19;20006;-80
2022/09/05 11:46:56;;;;;;;1.58;0.60;;;;;;;;;;7397498;19;20078;-80
2022/09/05 11:50:04;;;;;;;1.10;1.00;;;;;;;;;;7397019;19;20006;-81
2022/09/05 11:52:57;;;;;;;2.17;0.90;;;;;;;;;;7399440;19;20040;-79
2022/09/05 11:55:38;;;;;;;1.08;0.95;;;;;;;;;;7397519;19;20007;-79
2022/09/05 11:58:06;;;;;;;2.78;1.05;;;;;;;;;;7393245;19;20014;-79
2022/09/05 12:00:40;;;;;;;1.90;0.82;;;;;;;;;;7396325;19;20107;-78
2022/09/05 12:03:40;;;;;;;1.05;0.68;;;;;;;;;;7396672;19;20030;-78
2022/09/05 12:06:12;;;;;;;1.35;0.60;;;;;;;;;;7390096;19;20019;-78
2022/09/05 12:08:46;;;;;;;1.40;0.70;;;;;;;;;;7393778;19;19998;-79
2022/09/05 12:11:53;;;;;;;2.78;0.85;;;;;;;;;;7395359;19;20022;-78
2022/09/05 12:14:34;;;;;;;1.85;0.80;;;;;;;;;;7397684;19;20003;-78
2022/09/05 12:17:24;;;;;;;0.82;0.80;;;;;;;;;;7392361;19;20030;-77
2022/09/05 12:20:00;;;;;;;0.88;0.57;;;;;;;;;;7394369;19;20007;-79
2022/09/05 12:22:50;;;;;;;0.85;0.65;;;;;;;;;;7395949;19;20095;-77
2022/09/05 12:25:23;;;;;;;1.25;0.82;;;;;;;;;;7394284;19;20003;-78
2022/09/05 12:27:55;;;;;;;0.75;0.75;;;;;;;;;;7393363;19;20022;-76
2022/09/05 12:30:23;;;;;;;0.70;0.70;;;;;;;;;;7391729;19;19999;-77
2022/09/05 12:33:09;;;;;;;1.00;0.70;;;;;;;;;;7392850;19;20308;-77
2022/09/05 12:36:02;;;;;;;2.10;0.80;;;;;;;;;;7394353;19;20087;-78
2022/09/05 12:39:00;;;;;;;2.88;0.73;;;;;;;;;;7394573;19;20436;-78
2022/09/05 12:41:37;;;;;;;0.82;0.82;;;;;;;;;;7391570;19;20003;-77
2022/09/05 12:44:02;;;;;;;2.20;0.80;;;;;;;;;;7391981;19;20015;-78
2022/09/05 12:47:06;;;;;;;1.52;0.75;;;;;;;;;;7396598;19;20031;-78
2022/09/05 12:49:50;;;;;;;0.68;0.68;;;;;;;;;;7390666;19;20566;-78
2022/09/05 12:52:25;;;;;;;2.30;0.70;;;;;;;;;;7395503;19;20030;-79
2022/09/05 12:54:57;;;;;;;0.68;0.68;;;;;;;;;;7391748;19;20010;-77
2022/09/05 12:57:26;;;;;;;2.05;0.75;;;;;;;;;;7389948;19;20023;-78
2022/09/05 12:59:56;;;;;;;1.10;0.73;;;;;;;;;;7395143;19;20420;-78
2022/09/05 13:02:29;;;;;;;0.60;0.52;;;;;;;;;;7392801;19;20023;-78
2022/09/05 13:05:08;;;;;;;0.80;0.80;;;;;;;;;;7388834;19;20516;-78
2022/09/05 13:07:47;;;;;;;0.85;0.80;;;;;;;;;;7390525;19;20002;-78
2022/09/05 13:10:29;;;;;;;0.57;0.55;;;;;;;;;;7390956;19;20081;-78
2022/09/05 13:12:58;;;;;;;0.98;0.70;;;;;;;;;;7392725;19;20030;-78
2022/09/05 13:15:35;;;;;;;1.17;0.90;;;;;;;;;;7394729;19;20010;-78
2022/09/05 13:18:19;;;;;;;0.73;0.60;;;;;;;;;;7389321;19;20014;-77
2022/09/05 13:21:04;;;;;;;1.50;0.80;;;;;;;;;;7390230;19;20445;-78
2022/09/05 13:23:37;;;;;;;;;;;;;;;;;;7391866;19;20002;-78
2022/09/05 13:26:16;;;;;;;0.70;0.70;;;;;;;;;;7392658;19;19921;-78
2022/09/05 13:29:17;;;;;;;0.90;0.60;;;;;;;;;;7393082;19;20182;-78
2022/09/05 13:31:44;;;;;;;1.17;0.80;;;;;;;;;;7390987;19;20082;-78
2022/09/05 13:34:27;;;;;;;1.75;0.75;;;;;;;;;;7391873;19;19997;-78
2022/09/05 13:37:15;;;;;;;1.15;0.70;;;;;;;;;;7392422;19;20003;-78
2022/09/05 13:39:50;;;;;;;0.88;0.70;;;;;;;;;;7390632;19;20021;-78
2022/09/05 13:42:19;;;;;;;1.60;0.70;;;;;;;;;;7392258;19;20432;-78
2022/09/05 13:44:46;;;;;;;0.95;0.90;;;;;;;;;;7394620;19;20007;-78
2022/09/05 13:47:35;;;;;;;1.25;0.73;;;;;;;;;;7393904;19;20006;-79
2022/09/05 13:50:25;;;;;;;2.78;1.17;;;;;;;;;;7392478;19;20138;-78
2022/09/05 13:53:01;;;;;;;1.02;0.70;;;;;;;;;;7392544;19;20023;-78
2022/09/05 13:55:36;;;;;;;1.27;0.90;;;;;;;;;;7391304;19;20015;-78
2022/09/05 13:58:20;;;;;;;0.98;0.80;;;;;;;;;;7390133;19;20010;-77
2022/09/05 14:01:10;;;;;;;1.30;0.73;;;;;;;;;;7394947;19;20003;-78
2022/09/05 14:03:54;;;;;;;0.70;0.70;;;;;;;;;;7389288;19;20031;-78
2022/09/05 14:06:47;;;;;;;0.95;0.93;;;;;;;;;;7393363;19;20408;-78
2022/09/05 14:09:46;;;;;;;2.08;0.80;;;;;;;;;;7390397;19;20010;-78
2022/09/05 14:12:35;;;;;;;4.65;0.82;;;;;;;;;;7392690;19;20010;-77
2022/09/05 14:15:24;;;;;;;10.32;1.05;;;;;;;;;;7392872;19;20006;-77
2022/09/05 14:18:02;;;;;;;1.42;0.70;;;;;;;;;;7396848;19;20018;-77
2022/09/05 14:23:19;;;;;;;2.63;0.70;;;;;;;;;;7396984;19;20010;-78
2022/09/05 14:26:09;;;;;;;1.00;0.90;;;;;;;;;;7396926;19;20003;-77
2022/09/05 14:28:43;;;;;;;0.80;0.70;;;;;;;;;;7394038;19;20014;-78
2022/09/05 14:31:12;;;;;;;1.85;0.77;;;;;;;;;;7395152;19;20538;-77
2022/09/05 14:34:07;;;;;;;0.70;0.70;;;;;;;;;;7391517;19;20011;-77
2022/09/05 14:36:38;;;;;;;0.75;0.75;;;;;;;;;;7393834;19;20135;-78
2022/09/05 14:39:42;;;;;;;2.28;0.80;;;;;;;;;;7394345;19;20366;-78
2022/09/05 14:42:30;;;;;;;0.60;0.60;;;;;;;;;;7391821;19;20010;-77
2022/09/05 14:45:06;;;;;;;0.70;0.70;;;;;;;;;;7392035;19;20023;-78
2022/09/05 14:47:53;;;;;;;0.73;0.73;;;;;;;;;;7395397;19;20039;-78
2022/09/05 14:50:37;;;;;;;0.57;0.57;;;;;;;;;;7396132;19;20471;-77
2022/09/05 14:53:05;;;;;;;1.02;0.80;;;;;;;;;;7398738;19;20014;-78
2022/09/05 14:55:31;;;;;;;2.40;0.70;;;;;;;;;;7399375;19;20006;-78
2022/09/05 14:57:57;;;;;;;1.67;1.00;;;;;;;;;;7392668;19;20049;-78
2022/09/05 15:00:23;;;;;;;0.70;0.70;;;;;;;;;;7394783;19;20048;-78
2022/09/05 15:02:53;;;;;;;0.80;0.60;;;;;;;;;;7383485;19;20010;-78
2022/09/05 15:05:34;;;;;;;0.70;0.70;;;;;;;;;;7394116;19;20802;-79
2022/09/05 15:08:02;;;;;;;1.08;0.80;;;;;;;;;;7394187;19;20498;-77
2022/09/05 15:10:41;;;;;;;0.90;0.77;;;;;;;;;;7395030;19;20010;-77
2022/09/05 15:13:15;;;;;;;2.35;0.70;;;;;;;;;;7393110;19;20474;-78
2022/09/05 15:15:55;;;;;;;0.70;0.70;;;;;;;;;;7400324;19;20326;-78
2022/09/05 15:18:28;;;;;;;0.65;0.65;;;;;;;;;;7401064;19;20014;-79
2022/09/05 15:21:14;;;;;;;0.70;0.70;;;;;;;;;;7394789;19;20123;-79
2022/09/05 15:23:40;;;;;;;0.88;0.80;;;;;;;;;;7395719;19;20038;-78
2022/09/05 15:26:16;;;;;;;3.08;0.73;;;;;;;;;;7397451;19;20014;-79
2022/09/05 15:28:45;;;;;;;0.50;0.50;;;;;;;;;;7395603;19;20035;-78
2022/09/05 15:31:22;;;;;;;0.55;0.55;;;;;;;;;;7394941;19;20030;-78
2022/09/05 15:33:49;;;;;;;1.67;1.30;;;;;;;;;;7394452;19;20019;-78
2022/09/05 15:36:36;;;;;;;0.95;0.80;;;;;;;;;;7393940;19;20022;-78
2022/09/05 15:39:24;;;;;;;0.80;0.70;;;;;;;;;;7392199;19;20035;-78
2022/09/05 15:41:53;;;;;;;1.17;0.80;;;;;;;;;;7394704;19;20002;-78
2022/09/05 15:44:27;;;;;;;1.27;0.63;;;;;;;;;;7396046;19;20319;-77
2022/09/05 15:47:02;;;;;;;1.48;0.70;;;;;;;;;;7393800;19;20011;-78
2022/09/05 15:49:41;;;;;;;0.90;0.68;;;;;;;;;;7393427;19;20018;-78
2022/09/05 15:52:32;;;;;;;0.80;0.70;;;;;;;;;;7402731;19;20018;-79
2022/09/05 15:55:09;;;;;;;0.50;0.50;;;;;;;;;;7406593;19;20006;-81
2022/09/05 15:57:42;;;;;;;0.80;0.80;;;;;;;;;;7404941;19;20011;-78
2022/09/05 16:00:11;;;;;;;2.15;0.80;;;;;;;;;;7407067;19;20523;-76
2022/09/05 16:02:44;;;;;;;1.25;0.95;;;;;;;;;;7392034;19;20022;-77
2022/09/05 16:05:19;;;;;;;1.63;1.30;;;;;;;;;;7397538;19;20007;-78
2022/09/05 16:07:52;;;;;;;1.33;0.90;;;;;;;;;;7409560;19;20018;-79
2022/09/05 16:10:22;;;;;;;1.30;0.80;;;;;;;;;;7404474;19;20031;-78
2022/09/05 16:12:49;;;;;;;0.63;0.57;;;;;;;;;;7405334;19;21442;-78